Time;durP1;ratioP1;P1;durP2;ratioP2;P2;SDS_P1;SDS_P2;PMS_P1;PMS_P2;Temp;Humidity;BMP_temperature;BMP_pressure;BME280_temperature;BME280_humidity;BME280_pressure;Samples;Min_cycle;Max_cycle;Signal;HPM_P1;HPM_P2
2021/01/08 00:00:26;;;;;;;17.37;14.50;;;2.70;99.90;;;;;;5066265;28;20172;-67
2021/01/08 00:02:52;;;;;;;14.37;12.17;;;2.70;99.90;;;;;;5066547;28;20188;-67
2021/01/08 00:05:18;;;;;;;14.00;12.53;;;2.70;99.90;;;;;;5065125;28;20252;-67
2021/01/08 00:07:43;;;;;;;13.77;12.37;;;2.70;99.90;;;;;;5064943;28;20249;-66
2021/01/08 00:10:09;;;;;;;13.20;11.80;;;2.80;99.90;;;;;;5061879;28;20188;-67
2021/01/08 00:12:36;;;;;;;13.73;11.40;;;2.70;99.90;;;;;;5065355;28;20298;-67
2021/01/08 00:15:03;;;;;;;14.40;12.03;;;2.80;99.90;;;;;;5062343;28;20877;-67
2021/01/08 00:17:30;;;;;;;12.83;11.03;;;2.80;99.90;;;;;;5063147;28;20449;-67
2021/01/08 00:19:56;;;;;;;12.80;11.07;;;2.80;99.90;;;;;;5065468;28;20434;-67
2021/01/08 00:22:23;;;;;;;13.70;12.23;;;2.80;99.90;;;;;;5062907;28;20438;-67
2021/01/08 00:24:49;;;;;;;12.27;10.97;;;2.80;99.90;;;;;;5064705;28;20453;-67
2021/01/08 00:27:14;;;;;;;12.43;11.03;;;2.70;99.90;;;;;;5062332;28;20438;-67
2021/01/08 00:29:40;;;;;;;12.33;11.00;;;2.70;99.90;;;;;;5065147;28;20934;-67
2021/01/08 00:32:08;;;;;;;12.07;10.57;;;2.70;99.90;;;;;;5034370;28;20208;-67
2021/01/08 00:34:33;;;;;;;10.90;9.80;;;2.70;99.90;;;;;;5060013;28;20526;-66
2021/01/08 00:36:59;;;;;;;11.93;10.70;;;2.70;99.90;;;;;;5066120;28;20441;-67
2021/01/08 00:39:24;;;;;;;11.60;10.40;;;2.70;99.90;;;;;;5063303;28;20239;-66
2021/01/08 00:41:50;;;;;;;12.30;10.67;;;2.70;99.90;;;;;;5064669;28;20200;-66
2021/01/08 00:44:16;;;;;;;12.73;11.17;;;2.70;99.90;;;;;;5065938;28;20183;-67
2021/01/08 00:46:47;;;;;;;11.77;10.37;;;2.70;99.90;;;;;;5066435;28;20188;-66
2021/01/08 00:49:15;;;;;;;11.80;10.40;;;2.70;99.90;;;;;;5065934;28;21491;-66
2021/01/08 00:51:40;;;;;;;9.97;8.90;;;2.70;99.90;;;;;;5068726;28;20461;-67
2021/01/08 00:54:06;;;;;;;11.53;10.33;;;2.70;99.90;;;;;;5067726;28;20519;-67
2021/01/08 00:56:32;;;;;;;11.97;10.43;;;2.70;99.90;;;;;;5066789;28;20626;-67
2021/01/08 00:58:58;;;;;;;13.23;10.93;;;2.70;99.90;;;;;;5069187;28;20188;-67
2021/01/08 01:01:24;;;;;;;10.43;9.33;;;2.70;99.90;;;;;;5064968;28;20502;-67
2021/01/08 01:03:49;;;;;;;11.07;9.87;;;2.70;99.90;;;;;;5068051;28;20192;-67
2021/01/08 01:06:26;;;;;;;11.53;9.20;;;2.70;99.90;;;;;;5061682;28;20509;-67
2021/01/08 01:08:52;;;;;;;13.87;10.87;;;2.70;99.90;;;;;;5069385;28;20189;-67
2021/01/08 01:11:18;;;;;;;11.37;9.73;;;2.70;99.90;;;;;;5064329;28;20627;-67
2021/01/08 01:13:48;;;;;;;11.37;9.40;;;2.70;99.90;;;;;;5069431;28;20469;-67
2021/01/08 01:16:15;;;;;;;10.17;8.90;;;2.70;99.90;;;;;;5064830;28;20438;-66
2021/01/08 01:18:42;;;;;;;10.50;9.40;;;2.70;99.90;;;;;;5064725;28;20441;-67
2021/01/08 01:21:07;;;;;;;11.10;9.87;;;2.70;99.90;;;;;;5066951;28;20450;-67
2021/01/08 01:23:33;;;;;;;12.40;11.10;;;2.70;99.90;;;;;;5063933;28;20503;-66
2021/01/08 01:25:58;;;;;;;11.30;9.40;;;2.70;99.90;;;;;;5065886;28;20191;-67
2021/01/08 01:28:24;;;;;;;13.23;11.83;;;2.70;99.90;;;;;;5044299;28;20230;-67
2021/01/08 01:30:49;;;;;;;10.60;9.40;;;2.70;99.90;;;;;;5067609;28;20656;-66
2021/01/08 01:33:15;;;;;;;11.50;9.53;;;2.70;99.90;;;;;;5068210;28;20306;-66
2021/01/08 01:35:41;;;;;;;11.93;9.37;;;2.70;99.90;;;;;;5063872;28;20236;-66
2021/01/08 01:38:06;;;;;;;11.10;9.57;;;2.70;99.90;;;;;;5066329;28;20191;-66
2021/01/08 01:40:32;;;;;;;12.03;10.10;;;2.70;99.90;;;;;;5066202;28;20203;-66
2021/01/08 01:42:57;;;;;;;13.53;10.97;;;2.70;99.90;;;;;;5064268;28;20194;-67
2021/01/08 01:45:23;;;;;;;11.53;9.87;;;2.70;99.90;;;;;;5064478;28;20495;-67
2021/01/08 01:47:49;;;;;;;9.93;8.93;;;2.70;99.90;;;;;;5066035;28;20592;-66
2021/01/08 01:50:15;;;;;;;12.90;10.17;;;2.70;99.90;;;;;;5066382;28;20194;-67
2021/01/08 01:52:41;;;;;;;10.60;9.50;;;2.70;99.90;;;;;;5061696;28;20496;-67
2021/01/08 01:55:07;;;;;;;17.23;11.13;;;2.70;99.90;;;;;;5068931;28;20473;-67
2021/01/08 01:57:34;;;;;;;10.30;8.40;;;2.70;99.90;;;;;;5067340;28;20641;-67
2021/01/08 01:59:59;;;;;;;11.30;9.20;;;2.70;99.90;;;;;;5069391;28;20442;-66
2021/01/08 02:02:33;;;;;;;16.87;13.80;;;2.70;99.90;;;;;;5063991;28;20441;-66
2021/01/08 02:05:01;;;;;;;17.37;13.90;;;2.70;99.90;;;;;;5067368;28;20430;-66
2021/01/08 02:07:29;;;;;;;16.13;12.83;;;2.70;99.90;;;;;;5067931;28;20437;-67
2021/01/08 02:09:56;;;;;;;15.80;11.37;;;2.70;99.90;;;;;;5065011;28;20446;-67
2021/01/08 02:12:22;;;;;;;15.00;11.30;;;2.70;99.90;;;;;;5063644;28;20458;-67
2021/01/08 02:14:48;;;;;;;16.57;12.50;;;2.70;99.90;;;;;;5064090;28;20474;-67
2021/01/08 02:17:16;;;;;;;15.13;10.80;;;2.70;99.90;;;;;;5062723;28;20450;-66
2021/01/08 02:19:48;;;;;;;14.70;11.10;;;2.70;99.90;;;;;;5066112;28;20509;-66
2021/01/08 02:22:48;;;;;;;12.67;10.20;;;2.70;99.90;;;;;;5067248;28;20454;-67
2021/01/08 02:25:21;;;;;;;13.17;10.37;;;2.70;99.90;;;;;;5052905;28;20442;-67
2021/01/08 02:28:04;;;;;;;10.33;9.23;;;2.70;99.90;;;;;;5060940;28;20447;-67
2021/01/08 02:30:34;;;;;;;9.53;8.50;;;2.70;99.90;;;;;;5048050;28;20429;-67
2021/01/08 02:33:01;;;;;;;8.83;7.73;;;2.70;99.90;;;;;;5066275;28;20473;-67
2021/01/08 02:35:28;;;;;;;11.70;8.97;;;2.70;99.90;;;;;;5043071;28;20442;-66
2021/01/08 02:37:56;;;;;;;10.83;9.70;;;2.70;99.90;;;;;;5063256;28;20438;-67
2021/01/08 02:40:22;;;;;;;11.80;9.37;;;2.70;99.90;;;;;;5065529;28;20488;-66
2021/01/08 02:42:54;;;;;;;11.73;9.23;;;2.70;99.90;;;;;;5062662;28;20433;-67
2021/01/08 02:45:20;;;;;;;23.80;14.70;;;2.80;99.90;;;;;;5065675;28;20442;-67
2021/01/08 02:47:45;;;;;;;21.87;14.37;;;2.80;99.90;;;;;;5067370;28;20445;-67
2021/01/08 02:50:14;;;;;;;20.83;15.30;;;2.80;99.90;;;;;;5066957;28;20192;-67
2021/01/08 02:52:43;;;;;;;15.60;11.80;;;2.80;99.90;;;;;;5063507;28;20208;-66
2021/01/08 02:55:11;;;;;;;12.60;10.20;;;2.80;99.90;;;;;;5062685;28;20442;-67
2021/01/08 02:57:36;;;;;;;16.03;10.70;;;2.80;99.90;;;;;;5041126;28;20437;-66
2021/01/08 03:00:04;;;;;;;15.20;11.23;;;2.80;99.90;;;;;;5065205;28;20484;-67
2021/01/08 03:02:30;;;;;;;16.47;11.87;;;2.80;99.90;;;;;;5066883;28;20194;-66
2021/01/08 03:04:56;;;;;;;13.53;10.60;;;2.80;99.90;;;;;;5064850;28;20917;-67
2021/01/08 03:07:24;;;;;;;12.77;10.90;;;2.80;99.90;;;;;;5063713;28;20443;-66
2021/01/08 03:09:50;;;;;;;13.50;10.27;;;2.80;99.90;;;;;;5065118;28;20633;-66
2021/01/08 03:12:17;;;;;;;13.17;10.97;;;2.80;99.90;;;;;;5062418;28;20471;-66
2021/01/08 03:14:46;;;;;;;13.10;11.27;;;2.80;99.90;;;;;;5065501;28;20930;-66
2021/01/08 03:17:13;;;;;;;13.23;10.97;;;2.80;99.90;;;;;;5061856;28;20456;-66
2021/01/08 03:19:39;;;;;;;15.30;11.70;;;2.80;99.90;;;;;;5063765;28;20889;-65
2021/01/08 03:22:05;;;;;;;14.13;11.60;;;2.90;99.90;;;;;;5064919;28;20891;-66
2021/01/08 03:24:31;;;;;;;14.73;12.03;;;2.90;99.90;;;;;;5068257;28;20552;-66
2021/01/08 03:26:56;;;;;;;16.00;12.47;;;2.80;99.90;;;;;;5061655;28;20433;-66
2021/01/08 03:29:22;;;;;;;19.33;14.27;;;2.80;99.90;;;;;;5066887;28;20191;-66
2021/01/08 03:31:48;;;;;;;22.60;15.77;;;2.80;99.90;;;;;;5063105;28;20282;-67
2021/01/08 03:34:13;;;;;;;22.20;14.30;;;2.80;99.90;;;;;;5063915;28;20588;-67
2021/01/08 03:36:39;;;;;;;17.43;13.43;;;2.80;99.90;;;;;;5064995;28;20223;-66
2021/01/08 03:39:05;;;;;;;15.70;12.97;;;2.90;99.90;;;;;;5064139;28;20215;-67
2021/01/08 03:41:30;;;;;;;15.10;11.30;;;2.80;99.90;;;;;;5062110;28;20255;-67
2021/01/08 03:43:55;;;;;;;15.80;12.40;;;2.80;99.90;;;;;;5063250;28;20196;-67
2021/01/08 03:46:21;;;;;;;14.33;12.00;;;2.80;99.90;;;;;;5063945;28;20188;-67
2021/01/08 03:48:47;;;;;;;16.07;12.40;;;2.80;99.90;;;;;;5058177;28;20604;-67
2021/01/08 03:51:12;;;;;;;17.30;11.87;;;2.80;99.90;;;;;;5067217;28;20214;-67
2021/01/08 03:53:38;;;;;;;17.10;13.50;;;2.80;99.90;;;;;;5063258;28;20195;-67
2021/01/08 03:56:04;;;;;;;16.27;12.47;;;2.80;99.90;;;;;;5066465;28;20194;-67
2021/01/08 03:58:29;;;;;;;16.03;12.67;;;2.80;99.90;;;;;;5057821;28;20195;-67
2021/01/08 04:00:55;;;;;;;15.57;13.33;;;2.80;99.90;;;;;;5065802;28;21100;-67
2021/01/08 04:03:20;;;;;;;17.30;13.20;;;2.80;99.90;;;;;;5063877;28;20206;-67
2021/01/08 04:05:46;;;;;;;16.97;12.80;;;2.70;99.90;;;;;;5060450;28;20191;-67
2021/01/08 04:08:11;;;;;;;15.60;12.10;;;2.70;99.90;;;;;;5067322;28;20227;-67
2021/01/08 04:10:37;;;;;;;19.10;12.77;;;2.70;99.90;;;;;;5031582;28;20193;-67
2021/01/08 04:13:02;;;;;;;19.30;15.30;;;2.70;99.90;;;;;;5063361;28;20208;-67
2021/01/08 04:15:28;;;;;;;20.43;14.07;;;2.70;99.90;;;;;;5063983;28;20550;-67
2021/01/08 04:17:53;;;;;;;20.10;14.33;;;2.70;99.90;;;;;;5064827;28;20191;-67
2021/01/08 04:20:19;;;;;;;18.20;14.23;;;2.70;99.90;;;;;;5068660;28;20179;-66
2021/01/08 04:22:45;;;;;;;17.13;12.37;;;2.70;99.90;;;;;;5068476;28;20228;-67
2021/01/08 04:25:11;;;;;;;20.43;13.53;;;2.70;99.90;;;;;;5066839;28;20203;-67
2021/01/08 04:27:36;;;;;;;19.47;14.70;;;2.70;99.90;;;;;;5063941;28;20187;-67
2021/01/08 04:30:04;;;;;;;16.33;13.03;;;2.70;99.90;;;;;;5070184;28;20464;-67
2021/01/08 04:32:29;;;;;;;17.30;14.03;;;2.70;99.90;;;;;;5065041;28;20329;-67
2021/01/08 04:34:55;;;;;;;16.90;13.20;;;2.70;99.90;;;;;;5061392;28;21006;-67
2021/01/08 04:37:20;;;;;;;15.47;12.00;;;2.70;99.90;;;;;;5065132;28;20180;-67
2021/01/08 04:39:47;;;;;;;17.77;13.40;;;2.70;99.90;;;;;;5065811;28;20287;-67
2021/01/08 04:42:13;;;;;;;16.27;11.40;;;2.70;99.90;;;;;;5065064;28;20195;-67
2021/01/08 04:44:39;;;;;;;14.33;11.50;;;2.80;99.90;;;;;;5065346;28;20437;-67
2021/01/08 04:47:05;;;;;;;17.30;12.23;;;2.70;99.90;;;;;;5066565;28;21173;-67
2021/01/08 04:49:33;;;;;;;16.63;12.13;;;2.70;99.90;;;;;;5065849;28;20191;-67
2021/01/08 04:51:59;;;;;;;16.60;12.67;;;2.80;99.90;;;;;;5069203;28;20965;-67
2021/01/08 04:54:25;;;;;;;17.97;13.30;;;2.80;99.90;;;;;;5070520;28;20441;-67
2021/01/08 04:56:54;;;;;;;15.50;12.00;;;2.80;99.90;;;;;;5068514;28;20538;-67
2021/01/08 04:59:21;;;;;;;15.57;12.00;;;2.80;99.90;;;;;;5066409;28;20938;-67
2021/01/08 05:01:47;;;;;;;16.77;13.87;;;2.80;99.90;;;;;;5068425;28;21420;-67
2021/01/08 05:04:12;;;;;;;17.20;12.93;;;2.80;99.90;;;;;;5066369;28;20427;-67
2021/01/08 05:06:38;;;;;;;16.90;12.97;;;2.80;99.90;;;;;;5069766;28;20667;-67
2021/01/08 05:09:04;;;;;;;16.27;12.23;;;2.80;99.90;;;;;;5067878;28;20195;-67
2021/01/08 05:11:30;;;;;;;17.30;13.00;;;2.80;99.90;;;;;;5068766;28;20296;-67
2021/01/08 05:14:00;;;;;;;22.37;15.70;;;2.80;99.90;;;;;;5068580;28;20245;-67
2021/01/08 05:16:31;;;;;;;17.50;13.77;;;2.80;99.90;;;;;;5065845;28;20940;-67
2021/01/08 05:18:58;;;;;;;19.77;14.47;;;2.80;99.90;;;;;;5066495;28;20441;-67
2021/01/08 05:21:26;;;;;;;18.43;13.43;;;2.80;99.90;;;;;;5067265;28;20844;-67
2021/01/08 05:23:53;;;;;;;16.67;13.13;;;2.80;99.90;;;;;;5066735;28;20437;-67
2021/01/08 05:26:20;;;;;;;17.00;12.90;;;2.80;99.90;;;;;;5061969;28;20520;-67
2021/01/08 05:28:48;;;;;;;22.03;14.20;;;2.80;99.90;;;;;;5067288;28;20434;-67
2021/01/08 05:31:15;;;;;;;16.40;12.63;;;2.80;99.90;;;;;;5062625;28;20975;-67
2021/01/08 05:33:41;;;;;;;17.97;13.80;;;2.80;99.90;;;;;;5067682;28;20799;-67
2021/01/08 05:36:08;;;;;;;14.30;12.17;;;2.80;99.90;;;;;;5047750;28;20430;-67
2021/01/08 05:38:35;;;;;;;18.77;14.00;;;2.80;99.90;;;;;;5068938;28;20445;-67
2021/01/08 05:41:02;;;;;;;13.20;11.10;;;2.80;99.90;;;;;;5065660;28;20438;-67
2021/01/08 05:43:29;;;;;;;15.00;12.00;;;2.80;99.90;;;;;;5065949;28;20812;-67
2021/01/08 05:46:07;;;;;;;16.20;12.43;;;2.80;99.90;;;;;;5038940;28;20842;-67
2021/01/08 05:48:34;;;;;;;15.50;12.03;;;2.80;99.90;;;;;;5061990;28;20582;-67
2021/01/08 05:50:59;;;;;;;16.10;12.07;;;2.80;99.90;;;;;;5065352;28;20437;-67
2021/01/08 05:53:25;;;;;;;15.73;11.77;;;2.80;99.90;;;;;;5067423;28;20794;-67
2021/01/08 05:55:51;;;;;;;14.10;12.10;;;2.80;99.90;;;;;;5067875;28;20206;-67
2021/01/08 05:58:21;;;;;;;14.27;11.00;;;2.80;99.90;;;;;;5066749;28;20473;-67
2021/01/08 06:01:00;;;;;;;14.37;11.87;;;2.90;99.90;;;;;;5065708;28;20545;-67
2021/01/08 06:03:26;;;;;;;15.67;12.50;;;2.90;99.90;;;;;;5063406;28;20438;-67
2021/01/08 06:06:00;;;;;;;15.77;13.07;;;2.90;99.90;;;;;;5066512;28;20461;-67
2021/01/08 06:08:30;;;;;;;16.60;12.80;;;2.90;99.90;;;;;;5065699;28;20441;-67
2021/01/08 06:10:58;;;;;;;15.50;12.70;;;2.90;99.90;;;;;;5066135;28;20487;-67
2021/01/08 06:13:30;;;;;;;15.73;12.53;;;2.90;99.90;;;;;;5064003;28;20478;-67
2021/01/08 06:15:56;;;;;;;17.73;12.73;;;2.90;99.90;;;;;;5068684;28;20496;-67
2021/01/08 06:18:25;;;;;;;14.70;10.57;;;2.90;99.90;;;;;;5064796;28;20460;-67
2021/01/08 06:20:53;;;;;;;13.47;10.73;;;2.90;99.90;;;;;;5067679;28;20536;-67
2021/01/08 06:23:39;;;;;;;13.23;10.43;;;2.90;99.90;;;;;;5066530;28;20441;-67
2021/01/08 06:26:06;;;;;;;15.53;10.90;;;2.90;99.90;;;;;;5065909;28;20860;-67
2021/01/08 06:28:35;;;;;;;14.13;10.77;;;2.90;99.90;;;;;;5065406;28;20510;-67
2021/01/08 06:31:10;;;;;;;15.40;12.90;;;2.90;99.90;;;;;;5064287;28;20439;-67
2021/01/08 06:33:37;;;;;;;13.53;10.70;;;2.90;99.90;;;;;;5063381;28;20725;-67
2021/01/08 06:36:16;;;;;;;12.33;10.57;;;2.90;99.90;;;;;;5061070;28;20437;-67
2021/01/08 06:38:46;;;;;;;14.00;11.70;;;2.90;99.90;;;;;;5063550;28;20454;-67
2021/01/08 06:41:14;;;;;;;16.23;11.80;;;2.90;99.90;;;;;;5065340;28;20438;-67
2021/01/08 06:43:46;;;;;;;14.60;11.47;;;2.90;99.90;;;;;;5064820;28;20426;-67
2021/01/08 06:46:26;;;;;;;16.10;11.33;;;2.90;99.90;;;;;;5064692;28;20902;-67
2021/01/08 06:48:57;;;;;;;15.80;11.70;;;2.90;99.90;;;;;;5068772;28;20460;-67
2021/01/08 06:51:26;;;;;;;16.00;12.60;;;2.90;99.90;;;;;;5064062;28;20449;-67
2021/01/08 06:53:55;;;;;;;12.40;11.10;;;3.00;99.90;;;;;;5036359;28;20453;-67
2021/01/08 06:56:28;;;;;;;15.90;11.40;;;2.90;99.90;;;;;;5040161;28;20437;-67
2021/01/08 06:58:57;;;;;;;14.90;11.93;;;2.90;99.90;;;;;;5060949;28;20442;-67
2021/01/08 07:01:52;;;;;;;15.73;12.20;;;2.90;99.90;;;;;;5066908;28;20979;-67
2021/01/08 07:04:23;;;;;;;15.07;11.70;;;2.90;99.90;;;;;;5063738;28;20475;-67
2021/01/08 07:06:49;;;;;;;12.60;10.60;;;3.00;99.90;;;;;;5066169;28;20523;-67
2021/01/08 07:09:15;;;;;;;16.33;10.70;;;3.00;99.90;;;;;;5060786;28;20529;-67
2021/01/08 07:11:41;;;;;;;17.17;12.83;;;3.00;99.90;;;;;;5065055;28;20465;-67
2021/01/08 07:14:14;;;;;;;15.50;11.53;;;3.00;99.90;;;;;;5066032;28;20560;-67
2021/01/08 07:16:45;;;;;;;14.63;11.40;;;3.00;99.90;;;;;;5065261;28;20449;-67
2021/01/08 07:19:13;;;;;;;15.77;11.87;;;3.00;99.90;;;;;;5065469;28;20433;-67
2021/01/08 07:22:02;;;;;;;14.27;10.87;;;3.00;99.90;;;;;;5067860;28;20441;-66
2021/01/08 07:24:31;;;;;;;13.63;10.20;;;3.00;99.90;;;;;;5052878;28;20446;-67
2021/01/08 07:27:16;;;;;;;13.47;10.53;;;3.00;99.90;;;;;;5062653;28;20445;-67
2021/01/08 07:29:53;;;;;;;14.53;11.23;;;3.10;99.90;;;;;;5063422;28;20918;-67
2021/01/08 07:32:35;;;;;;;15.10;10.97;;;3.10;99.90;;;;;;5037313;28;20462;-67
2021/01/08 07:35:17;;;;;;;13.17;10.90;;;3.10;99.90;;;;;;5062527;28;20444;-67
2021/01/08 07:38:08;;;;;;;13.20;9.80;;;3.10;99.90;;;;;;5066591;28;20438;-67
2021/01/08 07:40:55;;;;;;;14.73;11.03;;;3.10;99.90;;;;;;5064515;28;20823;-67
2021/01/08 07:43:32;;;;;;;15.83;12.67;;;3.10;99.90;;;;;;5064901;28;20503;-67
2021/01/08 07:45:59;;;;;;;14.17;10.90;;;3.20;99.90;;;;;;5064285;28;20480;-67
2021/01/08 07:48:36;;;;;;;15.20;11.93;;;3.20;99.90;;;;;;5059340;28;20439;-67
2021/01/08 07:51:10;;;;;;;14.97;11.17;;;3.20;99.90;;;;;;5061775;28;20522;-67
2021/01/08 07:53:42;;;;;;;15.20;11.80;;;3.10;99.90;;;;;;5044345;28;20452;-67
2021/01/08 07:56:09;;;;;;;16.00;11.13;;;3.20;99.90;;;;;;5066149;28;20559;-67
2021/01/08 07:58:35;;;;;;;15.03;11.50;;;3.20;99.90;;;;;;5066827;28;20449;-67
2021/01/08 08:01:06;;;;;;;14.87;10.97;;;3.20;99.90;;;;;;5069360;28;20471;-67
2021/01/08 08:03:32;;;;;;;15.10;11.90;;;3.20;99.90;;;;;;5067305;28;20487;-67
2021/01/08 08:06:01;;;;;;;14.87;10.80;;;3.20;99.90;;;;;;5070349;28;20442;-67
2021/01/08 08:08:27;;;;;;;14.10;10.43;;;3.20;99.90;;;;;;5068284;28;20491;-67
2021/01/08 08:10:53;;;;;;;11.97;9.77;;;3.20;99.90;;;;;;5068923;28;20467;-67
2021/01/08 08:13:30;;;;;;;11.17;9.97;;;3.20;99.90;;;;;;5065187;28;20196;-67
2021/01/08 08:15:55;;;;;;;15.03;9.60;;;3.20;99.90;;;;;;5066468;28;20187;-67
2021/01/08 08:18:20;;;;;;;13.53;10.27;;;3.20;99.90;;;;;;5069832;28;20803;-66
2021/01/08 08:20:46;;;;;;;13.07;9.67;;;3.20;99.90;;;;;;5066717;28;20605;-67
2021/01/08 08:23:16;;;;;;;11.07;8.70;;;3.20;99.90;;;;;;5065619;28;20271;-67
2021/01/08 08:25:42;;;;;;;11.37;9.10;;;3.20;99.90;;;;;;5069288;28;20191;-67
2021/01/08 08:28:08;;;;;;;11.53;9.17;;;3.30;99.90;;;;;;5063992;28;20488;-67
2021/01/08 08:30:34;;;;;;;15.63;9.53;;;3.30;99.90;;;;;;5070092;28;20872;-67
2021/01/08 08:33:00;;;;;;;14.33;11.40;;;3.30;99.90;;;;;;5068687;28;20226;-67
2021/01/08 08:35:26;;;;;;;13.23;10.00;;;3.30;99.90;;;;;;5064423;28;20450;-67
2021/01/08 08:37:56;;;;;;;12.07;9.80;;;3.30;99.90;;;;;;5067370;28;21007;-67
2021/01/08 08:40:26;;;;;;;11.63;9.80;;;3.30;99.90;;;;;;5069825;28;20223;-67
2021/01/08 08:42:54;;;;;;;12.20;9.70;;;3.30;99.90;;;;;;5067277;28;20469;-67
2021/01/08 08:45:21;;;;;;;14.83;9.93;;;3.40;99.90;;;;;;5066279;28;20442;-67
2021/01/08 08:47:48;;;;;;;11.07;9.00;;;3.40;99.90;;;;;;5068199;28;20434;-67
2021/01/08 08:50:16;;;;;;;10.80;9.07;;;3.40;99.90;;;;;;5068100;28;20987;-67
2021/01/08 08:52:41;;;;;;;11.30;9.40;;;3.50;99.90;;;;;;5068031;28;20560;-66
2021/01/08 08:55:08;;;;;;;10.47;8.50;;;3.50;99.90;;;;;;5067969;28;20525;-67
2021/01/08 08:57:34;;;;;;;10.80;8.67;;;3.50;99.90;;;;;;5069909;28;21050;-67
2021/01/08 08:59:59;;;;;;;11.13;9.07;;;3.50;99.90;;;;;;5061792;28;20510;-67
2021/01/08 09:02:29;;;;;;;9.23;8.30;;;3.50;99.90;;;;;;5068397;28;20441;-67
2021/01/08 09:04:58;;;;;;;10.10;7.80;;;3.50;99.90;;;;;;5063395;28;20556;-67
2021/01/08 09:07:42;;;;;;;8.60;7.80;;;3.60;99.90;;;;;;5066841;28;20433;-67
2021/01/08 09:10:14;;;;;;;9.43;8.10;;;3.60;99.90;;;;;;5065672;28;20946;-67
2021/01/08 09:13:00;;;;;;;9.03;7.90;;;3.60;99.90;;;;;;5067724;28;20985;-66
2021/01/08 09:15:32;;;;;;;8.10;7.30;;;3.60;99.90;;;;;;5039897;28;20442;-67
2021/01/08 09:18:35;;;;;;;8.07;7.27;;;3.60;99.90;;;;;;5066217;28;20936;-67
2021/01/08 09:21:07;;;;;;;7.77;6.97;;;3.70;99.90;;;;;;5065403;28;20445;-67
2021/01/08 09:23:35;;;;;;;10.00;8.20;;;3.70;99.90;;;;;;5068637;28;20442;-67
2021/01/08 09:26:06;;;;;;;9.00;7.20;;;3.70;99.90;;;;;;5040239;28;20442;-67
2021/01/08 09:28:45;;;;;;;9.67;7.93;;;3.70;99.90;;;;;;5062649;28;20442;-67
2021/01/08 09:31:11;;;;;;;8.53;7.37;;;3.80;99.90;;;;;;5068338;28;20479;-67
2021/01/08 09:33:37;;;;;;;10.20;8.30;;;3.80;99.90;;;;;;5064908;28;20829;-67
2021/01/08 09:36:03;;;;;;;7.77;6.67;;;3.80;99.90;;;;;;5067034;28;20441;-67
2021/01/08 09:38:29;;;;;;;9.77;8.07;;;3.80;99.90;;;;;;5064650;28;20187;-67
2021/01/08 09:40:55;;;;;;;9.30;7.87;;;3.80;99.90;;;;;;5069896;28;20483;-67
2021/01/08 09:43:21;;;;;;;9.37;8.33;;;3.80;99.90;;;;;;5061074;28;20925;-67
2021/01/08 09:46:03;;;;;;;10.90;7.87;;;3.80;99.90;;;;;;5067384;28;20516;-67
2021/01/08 09:48:29;;;;;;;9.17;7.20;;;3.80;99.90;;;;;;5061108;28;20491;-67
2021/01/08 09:51:03;;;;;;;8.03;7.20;;;3.80;99.90;;;;;;5066577;28;20426;-67
2021/01/08 09:53:29;;;;;;;9.20;6.53;;;3.80;99.90;;;;;;5063880;28;20203;-67
2021/01/08 09:56:10;;;;;;;9.37;8.23;;;3.80;99.90;;;;;;5061580;28;20440;-67
2021/01/08 09:58:36;;;;;;;10.30;9.00;;;3.80;99.90;;;;;;5068914;28;20205;-67
2021/01/08 10:01:01;;;;;;;11.43;8.90;;;3.80;99.90;;;;;;5066903;28;20437;-67
2021/01/08 10:03:27;;;;;;;10.37;8.33;;;3.90;99.90;;;;;;5064993;28;20184;-67
2021/01/08 10:06:02;;;;;;;9.67;8.60;;;3.90;99.90;;;;;;5064703;28;20253;-67
2021/01/08 10:08:27;;;;;;;10.77;8.47;;;3.90;99.90;;;;;;5066671;28;20187;-67
2021/01/08 10:10:53;;;;;;;11.07;8.87;;;3.90;99.90;;;;;;5067097;28;20434;-67
2021/01/08 10:13:20;;;;;;;10.60;8.83;;;4.00;99.90;;;;;;5067742;28;20229;-67
2021/01/08 10:15:48;;;;;;;10.97;8.90;;;4.00;99.90;;;;;;5061401;28;20184;-67
2021/01/08 10:18:16;;;;;;;11.97;9.10;;;4.00;99.90;;;;;;5063600;28;20434;-67
2021/01/08 10:21:08;;;;;;;11.13;8.67;;;4.00;99.90;;;;;;5066689;28;20931;-67
2021/01/08 10:23:41;;;;;;;9.77;8.30;;;4.00;99.90;;;;;;5067277;28;20434;-67
2021/01/08 10:26:18;;;;;;;10.83;8.67;;;4.00;99.90;;;;;;5061232;28;22415;-66
2021/01/08 10:28:50;;;;;;;10.50;7.83;;;4.00;99.90;;;;;;5068359;28;20430;-67
2021/01/08 10:31:17;;;;;;;10.23;8.83;;;4.10;99.90;;;;;;5065418;28;20473;-67
2021/01/08 10:33:42;;;;;;;10.40;8.37;;;4.10;99.90;;;;;;5065136;28;20442;-67
2021/01/08 10:36:08;;;;;;;15.63;9.00;;;4.10;99.90;;;;;;5065431;28;20442;-67
2021/01/08 10:38:34;;;;;;;10.90;8.20;;;4.20;99.90;;;;;;5065937;28;20184;-67
2021/01/08 10:41:00;;;;;;;9.40;7.10;;;4.20;99.90;;;;;;5063916;28;20540;-67
2021/01/08 10:43:26;;;;;;;11.93;7.90;;;4.20;99.90;;;;;;5067209;28;20207;-67
2021/01/08 10:45:51;;;;;;;9.50;7.00;;;4.30;99.90;;;;;;5043656;28;20680;-67
2021/01/08 10:48:17;;;;;;;9.00;7.53;;;4.30;99.90;;;;;;5062521;28;20677;-67
2021/01/08 10:50:45;;;;;;;8.73;6.60;;;4.30;99.90;;;;;;5061986;28;20721;-67
2021/01/08 10:53:11;;;;;;;10.07;9.03;;;4.40;99.90;;;;;;5062690;28;20207;-67
2021/01/08 10:55:36;;;;;;;8.47;6.80;;;4.40;99.90;;;;;;5063661;28;20671;-67
2021/01/08 10:58:02;;;;;;;8.97;7.00;;;4.40;99.90;;;;;;5065908;28;20207;-67
2021/01/08 11:00:28;;;;;;;7.53;6.70;;;4.50;99.90;;;;;;5064870;28;20176;-67
2021/01/08 11:02:53;;;;;;;8.20;7.13;;;4.50;99.90;;;;;;5067378;28;20192;-67
2021/01/08 11:05:19;;;;;;;7.23;6.20;;;4.50;99.90;;;;;;5063067;28;20214;-67
2021/01/08 11:07:45;;;;;;;8.70;7.10;;;4.60;99.90;;;;;;5065188;28;20929;-67
2021/01/08 11:10:13;;;;;;;9.30;7.57;;;4.70;99.90;;;;;;5065017;28;20516;-67
2021/01/08 11:12:39;;;;;;;8.20;7.13;;;4.70;99.90;;;;;;5064090;28;20199;-67
2021/01/08 11:15:06;;;;;;;8.50;7.17;;;4.80;99.90;;;;;;5064429;28;20473;-67
2021/01/08 11:17:32;;;;;;;9.37;7.90;;;4.80;99.90;;;;;;5063358;28;20186;-67
2021/01/08 11:19:57;;;;;;;10.77;8.77;;;4.80;99.90;;;;;;5063262;28;20442;-67
2021/01/08 11:22:27;;;;;;;7.10;6.40;;;4.80;99.90;;;;;;5063365;28;20456;-67
2021/01/08 11:24:52;;;;;;;8.50;7.00;;;4.80;99.90;;;;;;5064333;28;20188;-67
2021/01/08 11:27:19;;;;;;;8.43;7.53;;;4.80;99.90;;;;;;5062290;28;20429;-67
2021/01/08 11:29:44;;;;;;;8.50;6.93;;;4.80;99.90;;;;;;5063929;28;20191;-67
2021/01/08 11:32:10;;;;;;;6.90;6.20;;;4.80;99.90;;;;;;5066884;28;20469;-67
2021/01/08 11:34:39;;;;;;;6.63;6.00;;;4.80;99.90;;;;;;5062529;28;20380;-67
2021/01/08 11:37:05;;;;;;;9.50;7.40;;;4.80;99.90;;;;;;5060692;28;20206;-67
2021/01/08 11:39:31;;;;;;;8.23;7.43;;;4.90;99.90;;;;;;5067731;28;20694;-67
2021/01/08 11:41:57;;;;;;;6.57;5.97;;;4.90;99.90;;;;;;5063612;28;20481;-67
2021/01/08 11:44:23;;;;;;;7.70;7.00;;;4.90;99.90;;;;;;5068521;28;20552;-67
2021/01/08 11:46:50;;;;;;;9.90;5.90;;;4.90;99.90;;;;;;5064363;28;20549;-67
2021/01/08 11:49:16;;;;;;;7.77;6.17;;;4.80;99.90;;;;;;5038772;28;20427;-67
2021/01/08 11:51:42;;;;;;;8.53;6.47;;;4.90;99.90;;;;;;5062678;28;20489;-67
2021/01/08 11:54:07;;;;;;;5.53;5.03;;;4.80;99.90;;;;;;5067305;28;20497;-66
2021/01/08 11:56:33;;;;;;;5.83;5.23;;;4.80;99.90;;;;;;5063582;28;20226;-66
2021/01/08 11:58:58;;;;;;;7.57;5.80;;;4.90;99.90;;;;;;5063954;28;20221;-66
2021/01/08 12:01:28;;;;;;;5.33;4.83;;;4.80;99.90;;;;;;5066257;28;20258;-67
2021/01/08 12:03:54;;;;;;;5.80;4.80;;;4.80;99.90;;;;;;5063213;28;20206;-66
2021/01/08 12:06:28;;;;;;;4.63;4.23;;;4.80;99.90;;;;;;5068648;28;20469;-66
2021/01/08 12:08:55;;;;;;;8.30;6.03;;;4.80;99.90;;;;;;5062570;28;20449;-66
2021/01/08 12:11:22;;;;;;;5.97;4.90;;;4.80;99.90;;;;;;5064930;28;20476;-66
2021/01/08 12:13:48;;;;;;;5.10;4.67;;;4.80;99.90;;;;;;5066055;28;20539;-66
2021/01/08 12:16:13;;;;;;;5.97;5.37;;;4.80;99.90;;;;;;5063405;28;20477;-66
2021/01/08 12:18:39;;;;;;;5.60;5.10;;;4.80;99.90;;;;;;5065396;28;20184;-67
2021/01/08 12:21:07;;;;;;;7.93;5.17;;;4.90;99.90;;;;;;5063074;28;20190;-66
2021/01/08 12:23:33;;;;;;;4.73;4.30;;;4.90;99.90;;;;;;5065564;28;20267;-66
2021/01/08 12:25:59;;;;;;;5.00;4.60;;;4.90;99.90;;;;;;5061215;28;20888;-66
2021/01/08 12:28:25;;;;;;;6.03;5.53;;;4.90;99.90;;;;;;5062086;28;20470;-66
2021/01/08 12:30:50;;;;;;;5.40;4.90;;;4.90;99.90;;;;;;5063456;28;20190;-66
2021/01/08 12:33:16;;;;;;;5.33;4.83;;;4.90;99.90;;;;;;5061516;28;20216;-66
2021/01/08 12:35:41;;;;;;;4.80;4.40;;;5.00;99.90;;;;;;5066047;28;20184;-66
2021/01/08 12:38:07;;;;;;;5.57;4.93;;;4.90;99.90;;;;;;5066423;28;20231;-66
2021/01/08 12:40:33;;;;;;;5.37;4.87;;;5.00;99.90;;;;;;5067375;28;20219;-66
2021/01/08 12:42:58;;;;;;;5.30;4.80;;;5.00;99.90;;;;;;5066167;28;20275;-66
2021/01/08 12:45:24;;;;;;;6.37;5.40;;;4.90;99.90;;;;;;5069773;28;20528;-66
2021/01/08 12:47:50;;;;;;;5.27;4.77;;;4.90;99.90;;;;;;5068915;28;20346;-66